Pagrindinis puslapis
METAR-TAF:

METAR-TAF

Oro uostai :

Tabukas, Saudo Arabija

platuma: 28-22N, ilguma: 036-36E, Aukštis: 778 m

Dabartinis oras

Ataskaita buvo paskelbta 53 minutes, ne 04:00 UTC
Ramus vėjas
Temperatūra 24°C
Drėgmė 27%
Slėgis 1014 hPa
Matomumas 10 km arba daugiau
nėra debesų žemiau 1500 m ir nėra kamuolinių lietaus debesų

METAR: OETB 220400Z 00000KT CAVOK 24/04 Q1014 NOSIG

Laikas: 07:53 (04:53 UTC)

Prognozė

Ataskaita buvo paskelbta 5 valandos ir 53 minutes, ne 23:00 UTC
Prognozė galioja nuo 22 metu 00 UTC su 23 metu 06 UTC
Vėjas 6 kt iš Šiaurės
Matomumas 10 km arba daugiau
nėra debesų žemiau 1500 m ir nėra kamuolinių lietaus debesų
Tapsmas
nuo 22 metu 16 UTC su 22 metu 18 UTC
Vėjas 10 kt iš Šiaurės

TAF: OETB 212300Z 2200/2306 35006KT CAVOK BECMG 2216/2218 36010KT

Orai ataskaitas ir orų prognozės (METAR, TAF).

turimą stotys yra geltonos ir raudonos taškus žemėlapyje.

Perkelti pele per norėdami pamatyti stoties vardą.

Tada spustelėkite, norėdami matyti oro stebėjimo ir prognozės.

Norėdami pakeisti žemėlapį: spustelėkite ant žalios mygtukų su juodo kryžiaus žemyn,; žalią mygtuką su brūkšneliu, jei norite nutolinti; arba žalių rodyklių gretimoms žemėlapius.


METAR-TAF: